sensor_id;sensor_type;location;lat;lon;timestamp;pressure;altitude;pressure_sealevel;temperature;humidity
77019;BME280;66044;53.142;17.962;2024-03-07T00:00:08;102285.92;;;-0.62;74.68
77019;BME280;66044;53.142;17.962;2024-03-07T00:03:01;102286.77;;;-0.64;74.63
77019;BME280;66044;53.142;17.962;2024-03-07T00:05:30;102286.70;;;-0.65;74.84
77019;BME280;66044;53.142;17.962;2024-03-07T00:07:56;102284.88;;;-0.67;74.57
77019;BME280;66044;53.142;17.962;2024-03-07T00:10:24;102286.23;;;-0.69;74.64
77019;BME280;66044;53.142;17.962;2024-03-07T00:12:51;102288.23;;;-0.71;74.94
77019;BME280;66044;53.142;17.962;2024-03-07T00:15:17;102288.28;;;-0.72;75.07
77019;BME280;66044;53.142;17.962;2024-03-07T00:17:44;102283.86;;;-0.75;74.87
77019;BME280;66044;53.142;17.962;2024-03-07T00:20:11;102285.71;;;-0.77;75.09
77019;BME280;66044;53.142;17.962;2024-03-07T00:22:45;102283.61;;;-0.78;75.00
77019;BME280;66044;53.142;17.962;2024-03-07T00:25:12;102283.57;;;-0.79;74.89
77019;BME280;66044;53.142;17.962;2024-03-07T00:27:43;102279.22;;;-0.81;74.93
77019;BME280;66044;53.142;17.962;2024-03-07T00:30:12;102282.55;;;-0.82;75.25
77019;BME280;66044;53.142;17.962;2024-03-07T00:32:45;102280.23;;;-0.82;75.26
77019;BME280;66044;53.142;17.962;2024-03-07T00:35:12;102281.35;;;-0.84;74.93
77019;BME280;66044;53.142;17.962;2024-03-07T00:37:38;102285.39;;;-0.85;75.03
77019;BME280;66044;53.142;17.962;2024-03-07T00:40:05;102285.39;;;-0.86;75.08
77019;BME280;66044;53.142;17.962;2024-03-07T00:42:32;102279.50;;;-0.87;74.98
77019;BME280;66044;53.142;17.962;2024-03-07T00:44:59;102280.96;;;-0.86;75.04
77019;BME280;66044;53.142;17.962;2024-03-07T00:47:25;102284.45;;;-0.86;75.19
77019;BME280;66044;53.142;17.962;2024-03-07T00:49:51;102280.23;;;-0.86;75.16
77019;BME280;66044;53.142;17.962;2024-03-07T00:52:18;102278.81;;;-0.85;75.22
77019;BME280;66044;53.142;17.962;2024-03-07T00:54:45;102280.06;;;-0.86;75.24
77019;BME280;66044;53.142;17.962;2024-03-07T00:57:11;102278.90;;;-0.86;75.65
77019;BME280;66044;53.142;17.962;2024-03-07T00:59:37;102280.27;;;-0.87;75.57
77019;BME280;66044;53.142;17.962;2024-03-07T01:02:04;102276.86;;;-0.88;75.29
77019;BME280;66044;53.142;17.962;2024-03-07T01:04:31;102283.31;;;-0.89;75.33
77019;BME280;66044;53.142;17.962;2024-03-07T01:07:00;102283.42;;;-0.91;75.36
77019;BME280;66044;53.142;17.962;2024-03-07T01:09:26;102283.06;;;-0.93;75.35
77019;BME280;66044;53.142;17.962;2024-03-07T01:11:55;102278.15;;;-0.95;75.32
77019;BME280;66044;53.142;17.962;2024-03-07T01:14:22;102281.61;;;-0.97;75.38
77019;BME280;66044;53.142;17.962;2024-03-07T01:16:49;102278.43;;;-0.99;75.57
77019;BME280;66044;53.142;17.962;2024-03-07T01:19:16;102278.55;;;-1.01;75.40
77019;BME280;66044;53.142;17.962;2024-03-07T01:21:43;102279.03;;;-1.03;75.75
77019;BME280;66044;53.142;17.962;2024-03-07T01:24:09;102277.04;;;-1.05;75.66
77019;BME280;66044;53.142;17.962;2024-03-07T01:26:35;102273.51;;;-1.08;75.92
77019;BME280;66044;53.142;17.962;2024-03-07T01:29:02;102273.92;;;-1.09;75.60
77019;BME280;66044;53.142;17.962;2024-03-07T01:31:29;102276.39;;;-1.11;75.63
77019;BME280;66044;53.142;17.962;2024-03-07T01:33:56;102275.27;;;-1.13;75.74
77019;BME280;66044;53.142;17.962;2024-03-07T01:36:22;102274.10;;;-1.15;76.06
77019;BME280;66044;53.142;17.962;2024-03-07T01:38:49;102273.45;;;-1.17;75.74
77019;BME280;66044;53.142;17.962;2024-03-07T01:41:16;102273.90;;;-1.19;75.48
77019;BME280;66044;53.142;17.962;2024-03-07T01:43:43;102272.39;;;-1.22;75.79
77019;BME280;66044;53.142;17.962;2024-03-07T01:46:10;102272.59;;;-1.24;75.72
77019;BME280;66044;53.142;17.962;2024-03-07T01:48:38;102272.17;;;-1.24;75.94
77019;BME280;66044;53.142;17.962;2024-03-07T01:51:07;102270.44;;;-1.26;75.74
77019;BME280;66044;53.142;17.962;2024-03-07T01:53:35;102270.84;;;-1.26;75.59
77019;BME280;66044;53.142;17.962;2024-03-07T01:56:02;102272.94;;;-1.27;75.93
77019;BME280;66044;53.142;17.962;2024-03-07T01:58:30;102268.64;;;-1.29;75.40
77019;BME280;66044;53.142;17.962;2024-03-07T02:01:00;102269.56;;;-1.31;75.78
77019;BME280;66044;53.142;17.962;2024-03-07T02:03:26;102271.11;;;-1.30;75.63
77019;BME280;66044;53.142;17.962;2024-03-07T02:05:53;102267.83;;;-1.29;75.78
77019;BME280;66044;53.142;17.962;2024-03-07T02:08:19;102270.61;;;-1.28;75.67
77019;BME280;66044;53.142;17.962;2024-03-07T02:10:46;102268.05;;;-1.28;75.67
77019;BME280;66044;53.142;17.962;2024-03-07T02:13:13;102264.92;;;-1.26;76.02
77019;BME280;66044;53.142;17.962;2024-03-07T02:15:39;102266.38;;;-1.26;75.75
77019;BME280;66044;53.142;17.962;2024-03-07T02:18:06;102268.48;;;-1.26;75.64
77019;BME280;66044;53.142;17.962;2024-03-07T02:20:33;102267.35;;;-1.25;75.80
77019;BME280;66044;53.142;17.962;2024-03-07T02:22:59;102263.86;;;-1.27;75.63
77019;BME280;66044;53.142;17.962;2024-03-07T02:25:25;102262.55;;;-1.28;75.89
77019;BME280;66044;53.142;17.962;2024-03-07T02:27:53;102260.11;;;-1.31;76.04
77019;BME280;66044;53.142;17.962;2024-03-07T02:30:20;102260.77;;;-1.33;76.19
77019;BME280;66044;53.142;17.962;2024-03-07T02:32:46;102264.06;;;-1.36;75.97
77019;BME280;66044;53.142;17.962;2024-03-07T02:35:20;102262.45;;;-1.38;75.90
77019;BME280;66044;53.142;17.962;2024-03-07T02:37:47;102261.39;;;-1.40;76.14
77019;BME280;66044;53.142;17.962;2024-03-07T02:40:14;102259.39;;;-1.42;75.97
77019;BME280;66044;53.142;17.962;2024-03-07T02:42:40;102262.63;;;-1.44;76.15
77019;BME280;66044;53.142;17.962;2024-03-07T02:45:08;102265.79;;;-1.44;76.37
77019;BME280;66044;53.142;17.962;2024-03-07T02:47:34;102264.95;;;-1.44;76.47
77019;BME280;66044;53.142;17.962;2024-03-07T02:50:05;102263.40;;;-1.44;76.28
77019;BME280;66044;53.142;17.962;2024-03-07T02:52:32;102262.76;;;-1.44;76.44
77019;BME280;66044;53.142;17.962;2024-03-07T02:54:59;102267.63;;;-1.43;76.03
77019;BME280;66044;53.142;17.962;2024-03-07T02:57:26;102267.08;;;-1.42;76.16
77019;BME280;66044;53.142;17.962;2024-03-07T02:59:53;102268.29;;;-1.41;76.26
77019;BME280;66044;53.142;17.962;2024-03-07T03:02:19;102266.95;;;-1.41;76.07
77019;BME280;66044;53.142;17.962;2024-03-07T03:04:46;102263.90;;;-1.42;75.98
77019;BME280;66044;53.142;17.962;2024-03-07T03:07:13;102267.92;;;-1.42;76.13
77019;BME280;66044;53.142;17.962;2024-03-07T03:09:39;102264.25;;;-1.43;76.06
77019;BME280;66044;53.142;17.962;2024-03-07T03:12:09;102267.05;;;-1.44;75.93
77019;BME280;66044;53.142;17.962;2024-03-07T03:14:37;102264.45;;;-1.46;76.02
77019;BME280;66044;53.142;17.962;2024-03-07T03:17:04;102268.70;;;-1.47;76.00
77019;BME280;66044;53.142;17.962;2024-03-07T03:19:30;102267.69;;;-1.49;76.10
77019;BME280;66044;53.142;17.962;2024-03-07T03:21:58;102273.66;;;-1.50;76.06
77019;BME280;66044;53.142;17.962;2024-03-07T03:24:25;102274.86;;;-1.51;76.22
77019;BME280;66044;53.142;17.962;2024-03-07T03:26:54;102273.35;;;-1.52;75.95
77019;BME280;66044;53.142;17.962;2024-03-07T03:29:21;102276.55;;;-1.52;76.22
77019;BME280;66044;53.142;17.962;2024-03-07T03:31:47;102266.52;;;-1.57;75.90
77019;BME280;66044;53.142;17.962;2024-03-07T03:34:13;102275.94;;;-1.53;75.70
77019;BME280;66044;53.142;17.962;2024-03-07T03:36:40;102273.14;;;-1.53;76.20
77019;BME280;66044;53.142;17.962;2024-03-07T03:39:07;102274.32;;;-1.54;76.03
77019;BME280;66044;53.142;17.962;2024-03-07T03:41:33;102270.10;;;-1.55;76.09
77019;BME280;66044;53.142;17.962;2024-03-07T03:44:00;102274.12;;;-1.58;76.07
77019;BME280;66044;53.142;17.962;2024-03-07T03:46:26;102272.11;;;-1.61;76.31
77019;BME280;66044;53.142;17.962;2024-03-07T03:48:53;102272.30;;;-1.64;76.18
77019;BME280;66044;53.142;17.962;2024-03-07T03:51:20;102272.96;;;-1.66;76.35
77019;BME280;66044;53.142;17.962;2024-03-07T03:53:48;102276.41;;;-1.68;76.55
77019;BME280;66044;53.142;17.962;2024-03-07T03:56:15;102272.71;;;-1.71;76.40
77019;BME280;66044;53.142;17.962;2024-03-07T03:58:42;102271.95;;;-1.73;76.68
77019;BME280;66044;53.142;17.962;2024-03-07T04:01:09;102266.16;;;-1.76;76.42
77019;BME280;66044;53.142;17.962;2024-03-07T04:03:39;102266.15;;;-1.78;76.54
77019;BME280;66044;53.142;17.962;2024-03-07T04:06:06;102266.45;;;-1.80;76.53
77019;BME280;66044;53.142;17.962;2024-03-07T04:08:33;102267.15;;;-1.83;76.23
77019;BME280;66044;53.142;17.962;2024-03-07T04:11:03;102268.73;;;-1.85;76.33
77019;BME280;66044;53.142;17.962;2024-03-07T04:13:30;102267.75;;;-1.87;76.30
77019;BME280;66044;53.142;17.962;2024-03-07T04:15:57;102262.54;;;-1.89;76.16
77019;BME280;66044;53.142;17.962;2024-03-07T04:18:25;102267.48;;;-1.91;76.54
77019;BME280;66044;53.142;17.962;2024-03-07T04:20:52;102265.81;;;-1.93;76.41
77019;BME280;66044;53.142;17.962;2024-03-07T04:23:22;102265.92;;;-1.95;76.52
77019;BME280;66044;53.142;17.962;2024-03-07T04:25:49;102267.77;;;-1.97;76.55
77019;BME280;66044;53.142;17.962;2024-03-07T04:28:16;102268.93;;;-1.98;76.49
77019;BME280;66044;53.142;17.962;2024-03-07T04:30:42;102270.35;;;-1.99;76.72
77019;BME280;66044;53.142;17.962;2024-03-07T04:33:09;102276.34;;;-2.01;76.62
77019;BME280;66044;53.142;17.962;2024-03-07T04:35:35;102275.45;;;-2.02;76.65
77019;BME280;66044;53.142;17.962;2024-03-07T04:38:02;102277.08;;;-2.03;76.74
77019;BME280;66044;53.142;17.962;2024-03-07T04:40:29;102276.35;;;-2.05;76.87
77019;BME280;66044;53.142;17.962;2024-03-07T04:42:56;102277.27;;;-2.06;76.83
77019;BME280;66044;53.142;17.962;2024-03-07T04:45:22;102274.52;;;-2.08;76.55
77019;BME280;66044;53.142;17.962;2024-03-07T04:47:49;102275.20;;;-2.09;76.83
77019;BME280;66044;53.142;17.962;2024-03-07T04:50:16;102282.61;;;-2.10;76.85
77019;BME280;66044;53.142;17.962;2024-03-07T04:52:44;102277.96;;;-2.12;76.72
77019;BME280;66044;53.142;17.962;2024-03-07T04:55:13;102278.86;;;-2.12;77.06
77019;BME280;66044;53.142;17.962;2024-03-07T04:57:41;102280.06;;;-2.13;77.00
77019;BME280;66044;53.142;17.962;2024-03-07T05:00:09;102279.34;;;-2.13;76.86
77019;BME280;66044;53.142;17.962;2024-03-07T05:02:49;102279.70;;;-2.13;76.88
77019;BME280;66044;53.142;17.962;2024-03-07T05:05:19;102280.60;;;-2.13;76.82
77019;BME280;66044;53.142;17.962;2024-03-07T05:07:53;102281.00;;;-2.13;76.77
77019;BME280;66044;53.142;17.962;2024-03-07T05:10:21;102285.38;;;-2.13;76.75
77019;BME280;66044;53.142;17.962;2024-03-07T05:12:50;102291.00;;;-2.11;76.72
77019;BME280;66044;53.142;17.962;2024-03-07T05:15:23;102292.58;;;-2.08;76.90
77019;BME280;66044;53.142;17.962;2024-03-07T05:17:52;102291.45;;;-2.06;76.90
77019;BME280;66044;53.142;17.962;2024-03-07T05:20:19;102296.65;;;-2.04;76.84
77019;BME280;66044;53.142;17.962;2024-03-07T05:22:47;102295.05;;;-2.00;76.93
77019;BME280;66044;53.142;17.962;2024-03-07T05:25:19;102297.58;;;-1.97;76.75
77019;BME280;66044;53.142;17.962;2024-03-07T05:27:49;102296.39;;;-1.93;76.84
77019;BME280;66044;53.142;17.962;2024-03-07T05:30:22;102295.75;;;-1.89;76.89
77019;BME280;66044;53.142;17.962;2024-03-07T05:32:51;102301.29;;;-1.86;76.90
77019;BME280;66044;53.142;17.962;2024-03-07T05:35:18;102302.77;;;-1.81;76.81
77019;BME280;66044;53.142;17.962;2024-03-07T05:37:45;102303.81;;;-1.76;76.99
77019;BME280;66044;53.142;17.962;2024-03-07T05:40:16;102303.79;;;-1.70;77.08
77019;BME280;66044;53.142;17.962;2024-03-07T05:42:43;102301.77;;;-1.63;76.97
77019;BME280;66044;53.142;17.962;2024-03-07T05:45:14;102301.23;;;-1.54;77.13
77019;BME280;66044;53.142;17.962;2024-03-07T05:47:41;102297.16;;;-1.46;77.03
77019;BME280;66044;53.142;17.962;2024-03-07T05:50:09;102301.37;;;-1.37;77.03
77019;BME280;66044;53.142;17.962;2024-03-07T05:52:36;102300.17;;;-1.28;76.80
77019;BME280;66044;53.142;17.962;2024-03-07T05:55:04;102305.41;;;-1.18;76.91
77019;BME280;66044;53.142;17.962;2024-03-07T05:57:34;102308.23;;;-1.07;77.03
77019;BME280;66044;53.142;17.962;2024-03-07T06:00:01;102306.45;;;-0.97;76.85
77019;BME280;66044;53.142;17.962;2024-03-07T06:02:27;102309.40;;;-0.87;76.74
77019;BME280;66044;53.142;17.962;2024-03-07T06:04:54;102311.48;;;-0.77;76.76
77019;BME280;66044;53.142;17.962;2024-03-07T06:07:22;102307.70;;;-0.68;76.58
77019;BME280;66044;53.142;17.962;2024-03-07T06:09:49;102311.63;;;-0.58;76.66
77019;BME280;66044;53.142;17.962;2024-03-07T06:12:16;102317.83;;;-0.49;76.54
77019;BME280;66044;53.142;17.962;2024-03-07T06:14:44;102319.83;;;-0.40;76.61
77019;BME280;66044;53.142;17.962;2024-03-07T06:17:10;102323.25;;;-0.29;76.48
77019;BME280;66044;53.142;17.962;2024-03-07T06:19:39;102324.40;;;-0.18;76.39
77019;BME280;66044;53.142;17.962;2024-03-07T06:22:06;102323.90;;;-0.05;76.52
77019;BME280;66044;53.142;17.962;2024-03-07T06:24:35;102325.86;;;0.10;76.43
77019;BME280;66044;53.142;17.962;2024-03-07T06:27:05;102327.91;;;0.27;76.09
77019;BME280;66044;53.142;17.962;2024-03-07T06:29:42;102329.31;;;0.49;75.82
77019;BME280;66044;53.142;17.962;2024-03-07T06:32:09;102336.01;;;0.72;75.71
77019;BME280;66044;53.142;17.962;2024-03-07T06:34:36;102334.42;;;1.03;75.48
77019;BME280;66044;53.142;17.962;2024-03-07T06:37:02;102333.02;;;1.56;74.97
77019;BME280;66044;53.142;17.962;2024-03-07T06:39:36;102340.52;;;2.32;74.08
77019;BME280;66044;53.142;17.962;2024-03-07T06:42:03;102338.55;;;2.97;73.27
77019;BME280;66044;53.142;17.962;2024-03-07T06:44:30;102339.45;;;3.23;73.00
77019;BME280;66044;53.142;17.962;2024-03-07T06:46:56;102341.87;;;3.67;71.98
77019;BME280;66044;53.142;17.962;2024-03-07T06:49:24;102346.27;;;5.08;70.58
77019;BME280;66044;53.142;17.962;2024-03-07T06:51:53;102351.79;;;6.54;68.88
77019;BME280;66044;53.142;17.962;2024-03-07T06:54:26;102350.45;;;7.95;67.36
77019;BME280;66044;53.142;17.962;2024-03-07T06:56:52;102356.67;;;9.27;65.53
77019;BME280;66044;53.142;17.962;2024-03-07T06:59:19;102360.77;;;10.36;63.92
77019;BME280;66044;53.142;17.962;2024-03-07T07:01:46;102362.03;;;11.37;62.25
77019;BME280;66044;53.142;17.962;2024-03-07T07:04:12;102362.14;;;12.30;60.38
77019;BME280;66044;53.142;17.962;2024-03-07T07:06:44;102361.48;;;13.12;58.58
77019;BME280;66044;53.142;17.962;2024-03-07T07:09:11;102368.20;;;13.78;56.88
77019;BME280;66044;53.142;17.962;2024-03-07T07:11:37;102371.23;;;14.37;55.30
77019;BME280;66044;53.142;17.962;2024-03-07T07:14:04;102374.54;;;14.60;53.93
77019;BME280;66044;53.142;17.962;2024-03-07T07:16:31;102371.07;;;14.17;52.88
77019;BME280;66044;53.142;17.962;2024-03-07T07:19:00;102368.19;;;13.05;52.54
77019;BME280;66044;53.142;17.962;2024-03-07T07:21:27;102370.17;;;12.05;52.16
77019;BME280;66044;53.142;17.962;2024-03-07T07:23:53;102366.95;;;11.23;52.32
77019;BME280;66044;53.142;17.962;2024-03-07T07:26:21;102366.02;;;10.57;52.38
77019;BME280;66044;53.142;17.962;2024-03-07T07:28:50;102364.07;;;10.07;52.73
77019;BME280;66044;53.142;17.962;2024-03-07T07:31:22;102359.52;;;9.74;53.43
77019;BME280;66044;53.142;17.962;2024-03-07T07:33:55;102360.00;;;9.54;53.81
77019;BME280;66044;53.142;17.962;2024-03-07T07:36:21;102362.21;;;9.41;53.77
77019;BME280;66044;53.142;17.962;2024-03-07T07:38:53;102363.09;;;9.26;53.98
77019;BME280;66044;53.142;17.962;2024-03-07T07:41:19;102363.98;;;9.16;54.21
77019;BME280;66044;53.142;17.962;2024-03-07T07:43:46;102363.58;;;9.10;54.49
77019;BME280;66044;53.142;17.962;2024-03-07T07:46:12;102361.47;;;9.00;54.51
77019;BME280;66044;53.142;17.962;2024-03-07T07:48:39;102355.23;;;8.90;54.72
77019;BME280;66044;53.142;17.962;2024-03-07T07:51:05;102358.90;;;8.84;55.90
77019;BME280;66044;53.142;17.962;2024-03-07T07:53:32;102360.83;;;8.79;55.57
77019;BME280;66044;53.142;17.962;2024-03-07T07:56:01;102359.37;;;8.63;55.86
77019;BME280;66044;53.142;17.962;2024-03-07T07:58:27;102354.67;;;8.42;55.85
77019;BME280;66044;53.142;17.962;2024-03-07T08:00:54;102352.36;;;8.26;55.93
77019;BME280;66044;53.142;17.962;2024-03-07T08:03:24;102354.70;;;8.06;56.19
77019;BME280;66044;53.142;17.962;2024-03-07T08:05:52;102349.58;;;7.95;55.75
77019;BME280;66044;53.142;17.962;2024-03-07T08:08:20;102350.57;;;7.92;56.21
77019;BME280;66044;53.142;17.962;2024-03-07T08:10:49;102346.23;;;7.90;55.95
77019;BME280;66044;53.142;17.962;2024-03-07T08:13:20;102347.08;;;7.83;55.90
77019;BME280;66044;53.142;17.962;2024-03-07T08:15:48;102349.43;;;7.77;55.72
77019;BME280;66044;53.142;17.962;2024-03-07T08:18:17;102344.56;;;7.74;56.02
77019;BME280;66044;53.142;17.962;2024-03-07T08:20:43;102343.48;;;7.75;56.03
77019;BME280;66044;53.142;17.962;2024-03-07T08:23:10;102344.73;;;7.80;56.02
77019;BME280;66044;53.142;17.962;2024-03-07T08:25:39;102343.34;;;7.76;55.39
77019;BME280;66044;53.142;17.962;2024-03-07T08:28:07;102335.59;;;7.53;54.77
77019;BME280;66044;53.142;17.962;2024-03-07T08:30:34;102333.27;;;7.28;54.60
77019;BME280;66044;53.142;17.962;2024-03-07T08:33:01;102335.89;;;7.03;54.69
77019;BME280;66044;53.142;17.962;2024-03-07T08:35:31;102338.16;;;6.74;54.05
77019;BME280;66044;53.142;17.962;2024-03-07T08:37:58;102333.35;;;6.50;54.32
77019;BME280;66044;53.142;17.962;2024-03-07T08:40:26;102334.85;;;6.35;54.45
77019;BME280;66044;53.142;17.962;2024-03-07T08:42:58;102332.80;;;6.16;54.69
77019;BME280;66044;53.142;17.962;2024-03-07T08:45:28;102333.84;;;6.07;54.55
77019;BME280;66044;53.142;17.962;2024-03-07T08:48:04;102333.23;;;5.98;54.84
77019;BME280;66044;53.142;17.962;2024-03-07T08:50:31;102335.33;;;5.90;54.90
77019;BME280;66044;53.142;17.962;2024-03-07T08:53:02;102337.41;;;5.85;54.76
77019;BME280;66044;53.142;17.962;2024-03-07T08:55:31;102335.83;;;5.83;55.07
77019;BME280;66044;53.142;17.962;2024-03-07T08:58:00;102333.95;;;5.87;55.15
77019;BME280;66044;53.142;17.962;2024-03-07T09:00:26;102330.80;;;5.88;55.01
77019;BME280;66044;53.142;17.962;2024-03-07T09:03:00;102327.88;;;5.87;55.26
77019;BME280;66044;53.142;17.962;2024-03-07T09:05:30;102329.02;;;5.92;55.64
77019;BME280;66044;53.142;17.962;2024-03-07T09:08:00;102326.73;;;6.01;55.67
77019;BME280;66044;53.142;17.962;2024-03-07T09:10:27;102332.61;;;6.07;55.26
77019;BME280;66044;53.142;17.962;2024-03-07T09:12:58;102328.19;;;6.01;55.18
77019;BME280;66044;53.142;17.962;2024-03-07T09:15:25;102330.31;;;5.99;54.98
77019;BME280;66044;53.142;17.962;2024-03-07T09:17:55;102326.63;;;5.96;54.65
77019;BME280;66044;53.142;17.962;2024-03-07T09:20:22;102334.41;;;6.06;54.61
77019;BME280;66044;53.142;17.962;2024-03-07T09:22:51;102335.36;;;6.19;54.80
77019;BME280;66044;53.142;17.962;2024-03-07T09:25:21;102342.27;;;6.34;54.55
77019;BME280;66044;53.142;17.962;2024-03-07T09:27:53;102345.17;;;6.29;53.66
77019;BME280;66044;53.142;17.962;2024-03-07T09:30:20;102337.58;;;6.14;53.20
77019;BME280;66044;53.142;17.962;2024-03-07T09:32:54;102338.58;;;6.06;52.92
77019;BME280;66044;53.142;17.962;2024-03-07T09:35:23;102337.35;;;6.06;53.64
77019;BME280;66044;53.142;17.962;2024-03-07T09:37:50;102336.38;;;6.12;52.99
77019;BME280;66044;53.142;17.962;2024-03-07T09:40:16;102339.35;;;6.10;52.93
77019;BME280;66044;53.142;17.962;2024-03-07T09:42:49;102338.02;;;6.05;52.24
77019;BME280;66044;53.142;17.962;2024-03-07T09:45:20;102335.75;;;6.06;52.76
77019;BME280;66044;53.142;17.962;2024-03-07T09:47:50;102336.61;;;6.07;52.29
77019;BME280;66044;53.142;17.962;2024-03-07T09:50:19;102338.42;;;6.03;51.49
77019;BME280;66044;53.142;17.962;2024-03-07T09:52:48;102340.23;;;5.96;51.83
77019;BME280;66044;53.142;17.962;2024-03-07T09:55:16;102338.94;;;5.92;51.90
77019;BME280;66044;53.142;17.962;2024-03-07T09:57:48;102341.64;;;5.97;51.96
77019;BME280;66044;53.142;17.962;2024-03-07T10:00:19;102340.84;;;5.97;51.55
77019;BME280;66044;53.142;17.962;2024-03-07T10:03:05;102343.06;;;6.01;51.84
77019;BME280;66044;53.142;17.962;2024-03-07T10:05:35;102341.33;;;6.04;51.82
77019;BME280;66044;53.142;17.962;2024-03-07T10:08:04;102342.16;;;6.01;51.94
77019;BME280;66044;53.142;17.962;2024-03-07T10:10:30;102344.88;;;5.99;51.55
77019;BME280;66044;53.142;17.962;2024-03-07T10:12:58;102341.46;;;5.95;51.35
77019;BME280;66044;53.142;17.962;2024-03-07T10:15:29;102336.45;;;5.94;51.54
77019;BME280;66044;53.142;17.962;2024-03-07T10:17:56;102331.36;;;5.99;52.02
77019;BME280;66044;53.142;17.962;2024-03-07T10:20:25;102337.23;;;6.11;52.27
77019;BME280;66044;53.142;17.962;2024-03-07T10:22:52;102335.09;;;6.16;51.98
77019;BME280;66044;53.142;17.962;2024-03-07T10:25:23;102333.83;;;6.13;51.65
77019;BME280;66044;53.142;17.962;2024-03-07T10:27:51;102335.63;;;6.11;51.91
77019;BME280;66044;53.142;17.962;2024-03-07T10:30:19;102334.86;;;6.09;51.52
77019;BME280;66044;53.142;17.962;2024-03-07T10:32:54;102332.48;;;6.12;51.56
77019;BME280;66044;53.142;17.962;2024-03-07T10:35:22;102330.62;;;6.12;51.03
77019;BME280;66044;53.142;17.962;2024-03-07T10:37:56;102328.52;;;6.11;50.90
77019;BME280;66044;53.142;17.962;2024-03-07T10:40:28;102326.28;;;6.10;51.36
77019;BME280;66044;53.142;17.962;2024-03-07T10:42:57;102331.50;;;6.09;50.83
77019;BME280;66044;53.142;17.962;2024-03-07T10:45:27;102324.48;;;5.99;50.87
77019;BME280;66044;53.142;17.962;2024-03-07T10:47:58;102323.45;;;5.97;51.20
77019;BME280;66044;53.142;17.962;2024-03-07T10:56:24;102321.61;;;5.89;50.27
77019;BME280;66044;53.142;17.962;2024-03-07T10:59:16;102328.18;;;5.90;50.20
77019;BME280;66044;53.142;17.962;2024-03-07T11:01:53;102323.31;;;5.86;50.01
77019;BME280;66044;53.142;17.962;2024-03-07T11:04:24;102319.38;;;5.80;50.57
77019;BME280;66044;53.142;17.962;2024-03-07T11:06:51;102318.94;;;5.73;50.79
77019;BME280;66044;53.142;17.962;2024-03-07T11:09:17;102312.73;;;5.71;50.77
77019;BME280;66044;53.142;17.962;2024-03-07T11:11:49;102311.48;;;5.69;50.61
77019;BME280;66044;53.142;17.962;2024-03-07T11:14:17;102313.48;;;5.70;51.02
77019;BME280;66044;53.142;17.962;2024-03-07T11:16:44;102314.60;;;5.72;51.22
77019;BME280;66044;53.142;17.962;2024-03-07T11:19:18;102307.48;;;5.75;51.38
77019;BME280;66044;53.142;17.962;2024-03-07T11:21:48;102303.75;;;5.80;51.47
77019;BME280;66044;53.142;17.962;2024-03-07T11:24:29;102309.12;;;5.80;50.91
77019;BME280;66044;53.142;17.962;2024-03-07T11:27:02;102310.42;;;5.75;51.19
77019;BME280;66044;53.142;17.962;2024-03-07T11:29:39;102298.96;;;5.76;51.57
77019;BME280;66044;53.142;17.962;2024-03-07T11:32:10;102302.98;;;5.82;51.72
77019;BME280;66044;53.142;17.962;2024-03-07T11:34:44;102294.86;;;5.82;51.66
77019;BME280;66044;53.142;17.962;2024-03-07T11:37:18;102298.95;;;5.84;51.74
77019;BME280;66044;53.142;17.962;2024-03-07T11:39:49;102292.98;;;5.85;51.84
77019;BME280;66044;53.142;17.962;2024-03-07T11:42:23;102298.73;;;5.88;51.44
77019;BME280;66044;53.142;17.962;2024-03-07T11:44:53;102289.01;;;5.88;51.30
77019;BME280;66044;53.142;17.962;2024-03-07T11:47:23;102289.48;;;5.93;51.83
77019;BME280;66044;53.142;17.962;2024-03-07T11:49:51;102286.27;;;5.96;51.66
77019;BME280;66044;53.142;17.962;2024-03-07T11:52:19;102285.71;;;5.95;51.50
77019;BME280;66044;53.142;17.962;2024-03-07T11:54:45;102279.11;;;5.93;51.78
77019;BME280;66044;53.142;17.962;2024-03-07T11:57:15;102279.10;;;5.93;51.74
77019;BME280;66044;53.142;17.962;2024-03-07T11:59:43;102277.14;;;5.93;51.84
77019;BME280;66044;53.142;17.962;2024-03-07T12:02:15;102272.83;;;5.97;51.63
77019;BME280;66044;53.142;17.962;2024-03-07T12:04:42;102272.13;;;5.96;51.62
77019;BME280;66044;53.142;17.962;2024-03-07T12:07:08;102266.96;;;5.94;51.66
77019;BME280;66044;53.142;17.962;2024-03-07T12:09:38;102266.10;;;5.93;51.93
77019;BME280;66044;53.142;17.962;2024-03-07T12:12:06;102260.23;;;5.94;52.23
77019;BME280;66044;53.142;17.962;2024-03-07T12:14:33;102254.19;;;6.00;52.65
77019;BME280;66044;53.142;17.962;2024-03-07T12:17:01;102254.04;;;6.10;52.78
77019;BME280;66044;53.142;17.962;2024-03-07T12:19:33;102253.02;;;6.16;52.16
77019;BME280;66044;53.142;17.962;2024-03-07T12:22:01;102254.88;;;6.22;51.90
77019;BME280;66044;53.142;17.962;2024-03-07T12:24:29;102257.48;;;6.21;51.44
77019;BME280;66044;53.142;17.962;2024-03-07T12:27:10;102250.91;;;6.20;51.76
77019;BME280;66044;53.142;17.962;2024-03-07T12:29:38;102259.41;;;6.22;51.49
77019;BME280;66044;53.142;17.962;2024-03-07T12:32:07;102252.65;;;6.24;51.57
77019;BME280;66044;53.142;17.962;2024-03-07T12:34:35;102249.17;;;6.31;51.47
77019;BME280;66044;53.142;17.962;2024-03-07T12:37:05;102247.65;;;6.36;51.74
77019;BME280;66044;53.142;17.962;2024-03-07T12:39:32;102250.50;;;6.38;50.93
77019;BME280;66044;53.142;17.962;2024-03-07T12:42:03;102241.29;;;6.35;50.90
77019;BME280;66044;53.142;17.962;2024-03-07T12:44:40;102237.20;;;6.39;51.50
77019;BME280;66044;53.142;17.962;2024-03-07T12:47:10;102236.55;;;6.46;51.61
77019;BME280;66044;53.142;17.962;2024-03-07T12:49:37;102234.03;;;6.54;51.74
77019;BME280;66044;53.142;17.962;2024-03-07T12:52:04;102230.58;;;6.59;51.26
77019;BME280;66044;53.142;17.962;2024-03-07T12:54:32;102225.98;;;6.62;51.32
77019;BME280;66044;53.142;17.962;2024-03-07T12:56:58;102222.91;;;6.64;51.18